Time;durP1;ratioP1;P1;durP2;ratioP2;P2;SDS_P1;SDS_P2;PMS_P1;PMS_P2;Temp;Humidity;BMP_temperature;BMP_pressure;BME280_temperature;BME280_humidity;BME280_pressure;Samples;Min_cycle;Max_cycle;Signal;HPM_P1;HPM_P2
2022/04/13 00:01:19;;;;;;;1.20;1.20;;;7.50;68.00;;;;;;5008834;28;20788;-71
2022/04/13 00:03:46;;;;;;;1.60;1.50;;;7.50;68.00;;;;;;5010637;28;20185;-72
2022/04/13 00:06:14;;;;;;;1.00;1.00;;;7.50;67.60;;;;;;5007283;28;20204;-71
2022/04/13 00:08:43;;;;;;;3.57;1.13;;;7.50;67.90;;;;;;5011047;28;20778;-72
2022/04/13 00:11:09;;;;;;;0.83;0.83;;;7.50;68.70;;;;;;5008305;28;20191;-71
2022/04/13 00:13:34;;;;;;;1.53;0.90;;;7.50;68.40;;;;;;5007562;28;20185;-71
2022/04/13 00:16:00;;;;;;;1.40;1.40;;;7.50;68.90;;;;;;5009950;28;20184;-72
2022/04/13 00:18:26;;;;;;;0.90;0.90;;;7.40;69.20;;;;;;5015592;28;20212;-72
2022/04/13 00:20:52;;;;;;;0.80;0.80;;;7.40;68.70;;;;;;5008400;28;20216;-72
2022/04/13 00:23:18;;;;;;;0.73;0.73;;;7.40;69.30;;;;;;5014738;28;20189;-73
2022/04/13 00:25:44;;;;;;;0.90;0.90;;;7.40;68.80;;;;;;5011182;28;20181;-71
2022/04/13 00:28:10;;;;;;;1.00;1.00;;;7.40;68.70;;;;;;5012922;28;20287;-71
2022/04/13 00:30:37;;;;;;;0.80;0.80;;;7.30;69.20;;;;;;5016105;28;20284;-72
2022/04/13 00:33:03;;;;;;;2.57;0.83;;;7.30;68.90;;;;;;5012649;28;20199;-72
2022/04/13 00:35:29;;;;;;;0.97;0.97;;;7.20;68.80;;;;;;5007208;28;20845;-71
2022/04/13 00:37:57;;;;;;;1.23;1.23;;;7.20;68.90;;;;;;5013003;28;20264;-73
2022/04/13 00:40:24;;;;;;;3.67;0.80;;;7.20;68.80;;;;;;5013805;28;20231;-73
2022/04/13 00:42:49;;;;;;;0.90;0.90;;;7.20;69.20;;;;;;5012311;28;20189;-73
2022/04/13 00:45:15;;;;;;;2.93;1.07;;;7.20;69.50;;;;;;5007856;28;20549;-73
2022/04/13 00:47:41;;;;;;;0.77;0.77;;;7.10;69.40;;;;;;5012300;28;20195;-73
2022/04/13 00:50:09;;;;;;;1.03;1.03;;;7.10;69.60;;;;;;5013819;28;20194;-71
2022/04/13 00:52:38;;;;;;;1.13;1.00;;;7.10;69.10;;;;;;5009438;28;20180;-73
2022/04/13 00:55:07;;;;;;;0.80;0.80;;;7.10;69.80;;;;;;5012743;28;20711;-71
2022/04/13 00:57:36;;;;;;;1.30;1.20;;;7.00;69.30;;;;;;5008477;28;20968;-71
2022/04/13 01:00:05;;;;;;;2.30;0.97;;;7.00;69.40;;;;;;5008487;28;20176;-71
2022/04/13 01:02:32;;;;;;;3.03;0.90;;;7.00;70.00;;;;;;5011217;28;20215;-71
2022/04/13 01:05:03;;;;;;;1.20;1.13;;;7.00;70.50;;;;;;5007091;28;20193;-71
2022/04/13 01:07:29;;;;;;;1.17;1.03;;;7.00;70.30;;;;;;5013796;28;20660;-72
2022/04/13 01:09:56;;;;;;;1.00;1.00;;;7.00;70.20;;;;;;5022454;28;20192;-71
2022/04/13 01:12:21;;;;;;;1.17;0.77;;;7.00;70.20;;;;;;5010478;28;20264;-72
2022/04/13 01:14:47;;;;;;;0.77;0.77;;;7.00;70.60;;;;;;5011314;28;20220;-71
2022/04/13 01:17:13;;;;;;;0.90;0.90;;;7.00;70.60;;;;;;5014685;28;20239;-72
2022/04/13 01:19:39;;;;;;;1.97;1.07;;;6.90;70.60;;;;;;5016073;28;20943;-72
2022/04/13 01:22:22;;;;;;;1.67;1.50;;;6.90;71.40;;;;;;5008949;28;20271;-72
2022/04/13 01:24:48;;;;;;;1.67;1.10;;;6.90;71.30;;;;;;5011098;28;20184;-72
2022/04/13 01:27:14;;;;;;;0.90;0.90;;;6.80;72.00;;;;;;5009486;28;20180;-71
2022/04/13 01:29:42;;;;;;;1.10;1.10;;;6.80;71.60;;;;;;5011193;28;20188;-71
2022/04/13 01:32:10;;;;;;;1.03;1.03;;;6.70;71.40;;;;;;5007203;28;20189;-71
2022/04/13 01:34:36;;;;;;;1.40;1.30;;;6.70;71.80;;;;;;5012007;28;20215;-73
2022/04/13 01:37:02;;;;;;;1.37;1.30;;;6.70;71.90;;;;;;5014164;28;20569;-73
2022/04/13 01:39:29;;;;;;;1.20;1.20;;;6.60;71.90;;;;;;5009224;28;20181;-72
2022/04/13 01:41:55;;;;;;;1.90;1.37;;;6.60;72.00;;;;;;5013848;28;20183;-73
2022/04/13 01:44:20;;;;;;;1.17;1.17;;;6.60;72.30;;;;;;5006885;28;20268;-73
2022/04/13 01:46:46;;;;;;;1.53;1.40;;;6.60;72.60;;;;;;5016267;28;20268;-73
2022/04/13 01:49:12;;;;;;;1.47;1.37;;;6.60;72.70;;;;;;5009991;28;20725;-73
2022/04/13 01:51:37;;;;;;;1.60;1.50;;;6.50;72.60;;;;;;5014354;28;20190;-73
2022/04/13 01:54:03;;;;;;;2.23;1.43;;;6.50;72.10;;;;;;5012332;28;20275;-73
2022/04/13 01:56:29;;;;;;;1.20;1.10;;;6.50;74.20;;;;;;5014108;28;20211;-73
2022/04/13 01:58:56;;;;;;;2.13;2.00;;;6.40;74.30;;;;;;5009867;28;20282;-73
2022/04/13 02:01:22;;;;;;;1.80;1.40;;;6.30;74.20;;;;;;5005282;28;20188;-73
2022/04/13 02:03:49;;;;;;;2.40;1.90;;;6.30;74.70;;;;;;5009824;28;20189;-73
2022/04/13 02:06:15;;;;;;;2.00;1.83;;;6.20;74.50;;;;;;5008744;28;20844;-73
2022/04/13 02:08:41;;;;;;;2.80;2.00;;;6.10;74.50;;;;;;5010305;28;20272;-73
2022/04/13 02:11:07;;;;;;;2.27;2.13;;;6.00;75.90;;;;;;5008032;28;20227;-73
2022/04/13 02:13:32;;;;;;;2.10;1.97;;;6.00;75.90;;;;;;5008041;28;20193;-73
2022/04/13 02:15:58;;;;;;;2.30;2.10;;;5.90;75.00;;;;;;5010042;28;20181;-73
2022/04/13 02:18:24;;;;;;;3.90;2.20;;;5.80;75.30;;;;;;5010648;28;20511;-73
2022/04/13 02:20:50;;;;;;;1.60;1.50;;;5.80;75.20;;;;;;5012301;28;20192;-73
2022/04/13 02:23:15;;;;;;;2.70;2.10;;;5.70;74.40;;;;;;5013467;28;20184;-73
2022/04/13 02:25:41;;;;;;;2.67;1.77;;;5.70;75.60;;;;;;5012467;28;20815;-73
2022/04/13 02:28:07;;;;;;;2.33;2.13;;;5.70;75.50;;;;;;5006667;28;20181;-73
2022/04/13 02:30:33;;;;;;;4.70;2.00;;;5.70;75.70;;;;;;5012512;28;20275;-73
2022/04/13 02:32:59;;;;;;;3.67;2.00;;;5.70;75.70;;;;;;5010503;28;20264;-73
2022/04/13 02:35:25;;;;;;;1.90;1.80;;;5.70;75.90;;;;;;5004351;28;20271;-72
2022/04/13 02:37:51;;;;;;;4.13;2.27;;;5.70;75.50;;;;;;5014214;28;20224;-72
2022/04/13 02:40:17;;;;;;;3.90;1.63;;;5.70;75.60;;;;;;5012118;28;20210;-73
2022/04/13 02:42:43;;;;;;;2.03;1.93;;;5.70;75.50;;;;;;5009890;28;20684;-72
2022/04/13 02:45:09;;;;;;;2.20;2.10;;;5.70;75.50;;;;;;5009286;28;20219;-72
2022/04/13 02:47:35;;;;;;;2.50;2.07;;;5.70;75.40;;;;;;5013619;28;20264;-72
2022/04/13 02:50:02;;;;;;;2.20;2.10;;;5.60;74.60;;;;;;5004698;28;20256;-73
2022/04/13 02:52:28;;;;;;;2.17;2.07;;;5.60;75.60;;;;;;5010992;28;20191;-71
2022/04/13 02:54:58;;;;;;;2.00;1.80;;;5.70;75.60;;;;;;5008167;28;20275;-71
2022/04/13 02:57:23;;;;;;;3.13;1.97;;;5.60;75.20;;;;;;5007948;28;20245;-71
2022/04/13 02:59:49;;;;;;;2.40;1.50;;;5.70;75.50;;;;;;5007760;28;20184;-71
2022/04/13 03:02:19;;;;;;;2.27;2.13;;;5.70;75.40;;;;;;5002670;28;20192;-72
2022/04/13 03:04:47;;;;;;;3.67;3.13;;;5.70;75.50;;;;;;5006526;28;20201;-72
2022/04/13 03:07:14;;;;;;;3.67;2.80;;;5.70;75.40;;;;;;5008419;28;20181;-72
2022/04/13 03:09:40;;;;;;;2.63;2.50;;;5.70;75.30;;;;;;5010060;28;20185;-73
2022/04/13 03:12:07;;;;;;;3.97;1.90;;;5.70;75.40;;;;;;5007483;28;20251;-73
2022/04/13 03:14:34;;;;;;;2.33;2.07;;;5.70;75.30;;;;;;5007396;28;20306;-73
2022/04/13 03:17:00;;;;;;;2.20;2.07;;;5.70;75.40;;;;;;5006410;28;20226;-72
2022/04/13 03:19:26;;;;;;;2.00;1.90;;;5.70;75.70;;;;;;5011058;28;20234;-72
2022/04/13 03:21:53;;;;;;;4.40;2.13;;;5.60;75.70;;;;;;5008555;28;20220;-72
2022/04/13 03:24:22;;;;;;;2.47;2.27;;;5.60;75.90;;;;;;5007311;28;20189;-72
2022/04/13 03:26:48;;;;;;;5.70;2.30;;;5.60;76.10;;;;;;5012775;28;20211;-72
2022/04/13 03:29:14;;;;;;;1.93;1.80;;;5.50;76.20;;;;;;5006011;28;20760;-72
2022/04/13 03:31:40;;;;;;;3.23;2.13;;;5.50;76.40;;;;;;5006316;28;20181;-72
2022/04/13 03:34:05;;;;;;;1.93;1.83;;;5.50;76.60;;;;;;5005650;28;20217;-72
2022/04/13 03:36:32;;;;;;;2.10;2.00;;;5.40;76.10;;;;;;5007567;28;20244;-72
2022/04/13 03:38:58;;;;;;;7.63;1.93;;;5.40;76.30;;;;;;5007741;28;20267;-72
2022/04/13 03:41:23;;;;;;;1.70;1.57;;;5.40;76.50;;;;;;5007035;28;20180;-72
2022/04/13 03:43:49;;;;;;;3.90;1.83;;;5.40;76.50;;;;;;5012903;28;20180;-72
2022/04/13 03:46:15;;;;;;;3.30;1.77;;;5.40;77.10;;;;;;5003586;28;20180;-72
2022/04/13 03:48:40;;;;;;;1.90;1.77;;;5.40;76.80;;;;;;5008747;28;20271;-72
2022/04/13 03:51:06;;;;;;;11.07;1.73;;;5.40;76.60;;;;;;5008590;28;20191;-72
2022/04/13 03:53:32;;;;;;;1.50;1.40;;;5.30;77.20;;;;;;5009688;28;20199;-72
2022/04/13 03:55:58;;;;;;;2.33;2.13;;;5.30;77.00;;;;;;5012141;28;20184;-71
2022/04/13 03:58:24;;;;;;;2.00;1.80;;;5.30;77.20;;;;;;5010460;28;21116;-72
2022/04/13 04:00:49;;;;;;;1.73;1.63;;;5.30;77.40;;;;;;5011518;28;20184;-73
2022/04/13 04:03:15;;;;;;;3.57;1.93;;;5.30;76.60;;;;;;5012872;28;20324;-73
2022/04/13 04:05:41;;;;;;;2.63;1.60;;;5.20;76.30;;;;;;5011821;28;20199;-74
2022/04/13 04:08:07;;;;;;;4.10;2.27;;;5.20;76.30;;;;;;5012898;28;20573;-75
2022/04/13 04:10:37;;;;;;;2.87;2.43;;;5.20;76.30;;;;;;5013505;28;20208;-74
2022/04/13 04:13:03;;;;;;;2.10;1.93;;;5.20;76.70;;;;;;5010534;28;20556;-75
2022/04/13 04:15:29;;;;;;;1.97;1.97;;;5.30;76.90;;;;;;5016010;28;20221;-74
2022/04/13 04:17:55;;;;;;;1.73;1.63;;;5.20;76.80;;;;;;5010949;28;20207;-73
2022/04/13 04:20:20;;;;;;;3.73;2.00;;;5.30;76.90;;;;;;5012863;28;20180;-71
2022/04/13 04:22:46;;;;;;;2.10;2.00;;;5.30;76.80;;;;;;5010795;28;20242;-71
2022/04/13 04:25:12;;;;;;;2.97;2.60;;;5.30;77.00;;;;;;5015956;28;20834;-72
2022/04/13 04:27:37;;;;;;;5.60;2.33;;;5.30;77.30;;;;;;5010576;28;20258;-71
2022/04/13 04:30:04;;;;;;;4.03;2.50;;;5.30;77.50;;;;;;5018667;28;20664;-72
2022/04/13 04:32:30;;;;;;;7.57;2.13;;;5.30;77.60;;;;;;5014824;28;20185;-72
2022/04/13 04:34:55;;;;;;;2.27;2.17;;;5.30;78.30;;;;;;5011957;28;20273;-73
2022/04/13 04:37:21;;;;;;;3.90;2.60;;;5.30;78.70;;;;;;5012167;28;20659;-72
2022/04/13 04:39:47;;;;;;;2.37;2.27;;;5.30;78.20;;;;;;5010706;28;20180;-72
2022/04/13 04:42:12;;;;;;;4.07;2.87;;;5.30;77.90;;;;;;5013532;28;20260;-72
2022/04/13 04:44:38;;;;;;;5.07;2.60;;;5.30;78.30;;;;;;5016736;28;20177;-72
2022/04/13 04:47:04;;;;;;;4.43;2.70;;;5.30;78.00;;;;;;5012881;28;20199;-73
2022/04/13 04:49:30;;;;;;;3.60;2.40;;;5.30;78.20;;;;;;5013811;28;20184;-73
2022/04/13 04:51:55;;;;;;;2.97;2.67;;;5.30;78.70;;;;;;5014770;28;20207;-73
2022/04/13 04:54:21;;;;;;;3.07;2.40;;;5.40;78.70;;;;;;5011188;28;20323;-73
2022/04/13 04:56:47;;;;;;;4.70;3.20;;;5.40;78.10;;;;;;5011439;28;20754;-73
2022/04/13 04:59:15;;;;;;;4.43;2.43;;;5.40;78.00;;;;;;5011104;28;20184;-71
2022/04/13 05:01:41;;;;;;;3.70;2.80;;;5.40;78.10;;;;;;5006117;28;20184;-72
2022/04/13 05:04:07;;;;;;;4.20;2.77;;;5.40;78.10;;;;;;5008487;28;20208;-71
2022/04/13 05:06:33;;;;;;;9.37;2.47;;;5.50;77.70;;;;;;5005881;28;20578;-71
2022/04/13 05:08:59;;;;;;;5.23;2.63;;;5.50;78.10;;;;;;5011410;28;20192;-72
2022/04/13 05:11:24;;;;;;;4.03;3.10;;;5.50;77.80;;;;;;5014102;28;20177;-72
2022/04/13 05:13:50;;;;;;;3.07;2.77;;;5.50;77.10;;;;;;5009613;28;25534;-72
2022/04/13 05:16:18;;;;;;;2.70;2.53;;;5.50;77.30;;;;;;5008798;28;20204;-73
2022/04/13 05:18:45;;;;;;;5.30;2.70;;;5.60;77.00;;;;;;5009489;28;20177;-72
2022/04/13 05:21:12;;;;;;;3.43;3.13;;;5.60;77.00;;;;;;5010400;28;20181;-72
2022/04/13 05:23:38;;;;;;;3.40;3.17;;;5.70;76.80;;;;;;5009316;28;20570;-73
2022/04/13 05:26:06;;;;;;;2.73;2.53;;;5.70;76.80;;;;;;5015081;28;20215;-75
2022/04/13 05:28:32;;;;;;;3.80;3.50;;;5.70;77.10;;;;;;5008086;28;20176;-72
2022/04/13 05:30:58;;;;;;;5.60;2.87;;;5.70;77.30;;;;;;5011655;28;20283;-72
2022/04/13 05:33:24;;;;;;;3.43;3.10;;;5.80;77.50;;;;;;5013749;28;20323;-73
2022/04/13 05:35:49;;;;;;;5.00;3.30;;;5.80;77.50;;;;;;5011457;28;20765;-71
2022/04/13 05:38:16;;;;;;;9.20;3.80;;;5.80;77.90;;;;;;5015343;28;20316;-73
2022/04/13 05:40:41;;;;;;;14.73;3.63;;;5.90;78.00;;;;;;5010137;28;20189;-74
2022/04/13 05:43:07;;;;;;;8.30;2.97;;;5.90;77.20;;;;;;5010303;28;20247;-72
2022/04/13 05:45:33;;;;;;;3.57;3.27;;;6.00;78.00;;;;;;5006806;28;20199;-73
2022/04/13 05:47:59;;;;;;;4.43;3.27;;;6.10;77.30;;;;;;5010544;28;20709;-73
2022/04/13 05:50:25;;;;;;;8.83;2.80;;;6.10;77.70;;;;;;5014172;28;20185;-73
2022/04/13 05:52:51;;;;;;;3.27;3.07;;;6.10;77.60;;;;;;5011717;28;20246;-72
2022/04/13 05:55:16;;;;;;;4.43;2.93;;;6.20;77.30;;;;;;5008086;28;20220;-72
2022/04/13 05:57:42;;;;;;;2.90;2.73;;;6.20;77.10;;;;;;5010641;28;20189;-72
2022/04/13 06:00:13;;;;;;;2.60;2.40;;;6.30;76.90;;;;;;5016977;28;20234;-72
2022/04/13 06:02:40;;;;;;;1.83;1.83;;;6.40;76.70;;;;;;5013466;28;20195;-71
2022/04/13 06:05:06;;;;;;;3.00;2.80;;;6.50;76.60;;;;;;5011618;28;20215;-71
2022/04/13 06:07:33;;;;;;;3.23;2.63;;;6.50;76.70;;;;;;5011830;28;20184;-71
2022/04/13 06:10:05;;;;;;;2.73;2.53;;;6.60;76.30;;;;;;5008865;28;20655;-71
2022/04/13 06:12:31;;;;;;;1.93;1.83;;;6.70;75.80;;;;;;5013225;28;20184;-71
2022/04/13 06:15:15;;;;;;;2.70;2.50;;;6.70;76.10;;;;;;5013787;28;20326;-72
2022/04/13 06:17:41;;;;;;;6.43;2.67;;;6.90;75.40;;;;;;5006299;28;20207;-71
2022/04/13 06:20:08;;;;;;;4.80;2.60;;;6.90;75.40;;;;;;5008283;28;20193;-72
2022/04/13 06:22:39;;;;;;;2.87;1.90;;;7.00;75.00;;;;;;5011245;28;20245;-72
2022/04/13 06:25:05;;;;;;;2.83;2.33;;;7.10;74.60;;;;;;5010649;28;20192;-72
2022/04/13 06:27:31;;;;;;;2.70;2.50;;;7.20;74.50;;;;;;5011925;28;20212;-71
2022/04/13 06:29:57;;;;;;;2.00;1.90;;;7.30;73.70;;;;;;5013219;28;20220;-71
2022/04/13 06:32:31;;;;;;;2.60;2.30;;;7.30;73.60;;;;;;5013145;28;20189;-71
2022/04/13 06:34:59;;;;;;;2.27;2.17;;;7.40;73.50;;;;;;5009957;28;20631;-72
2022/04/13 06:37:25;;;;;;;3.13;2.50;;;7.50;73.30;;;;;;5009949;28;20612;-72
2022/04/13 06:39:50;;;;;;;2.43;2.33;;;7.60;73.30;;;;;;5011057;28;20234;-72
2022/04/13 06:42:16;;;;;;;2.37;2.30;;;7.70;72.90;;;;;;5012118;28;20180;-71
2022/04/13 06:44:42;;;;;;;2.97;2.70;;;7.70;72.70;;;;;;5009900;28;20181;-72
2022/04/13 06:47:07;;;;;;;3.47;2.87;;;7.80;72.90;;;;;;5008330;28;20188;-73
2022/04/13 06:49:33;;;;;;;5.37;3.23;;;7.90;72.90;;;;;;5010032;28;20197;-73
2022/04/13 06:51:59;;;;;;;2.97;2.73;;;8.00;72.90;;;;;;5009457;28;20265;-71
2022/04/13 06:54:27;;;;;;;7.23;2.80;;;8.00;72.80;;;;;;5011840;28;20212;-72
2022/04/13 06:56:54;;;;;;;2.83;2.63;;;8.10;72.40;;;;;;5012114;28;20214;-74
2022/04/13 06:59:19;;;;;;;3.77;2.97;;;8.20;72.30;;;;;;5010433;28;20805;-71
2022/04/13 07:01:45;;;;;;;3.10;2.87;;;8.30;71.90;;;;;;5008644;28;20193;-72
2022/04/13 07:04:11;;;;;;;2.97;2.53;;;8.30;71.80;;;;;;5015855;28;20662;-73
2022/04/13 07:06:36;;;;;;;11.23;2.80;;;8.40;71.60;;;;;;5010596;28;20682;-72
2022/04/13 07:09:02;;;;;;;3.80;2.90;;;8.50;71.40;;;;;;5015257;28;20191;-72
2022/04/13 07:11:28;;;;;;;2.23;1.97;;;8.60;70.80;;;;;;5009077;28;20669;-72
2022/04/13 07:13:53;;;;;;;4.53;3.37;;;8.60;70.90;;;;;;5014523;28;20587;-72
2022/04/13 07:16:19;;;;;;;6.23;3.07;;;8.70;70.60;;;;;;5009090;28;20617;-72
2022/04/13 07:18:45;;;;;;;4.20;3.90;;;8.80;70.20;;;;;;5012265;28;20777;-72
2022/04/13 07:21:10;;;;;;;3.47;3.17;;;8.90;70.30;;;;;;5007235;28;20181;-72
2022/04/13 07:23:36;;;;;;;3.20;2.63;;;8.90;70.20;;;;;;5008812;28;20181;-72
2022/04/13 07:26:02;;;;;;;3.20;2.73;;;9.00;70.00;;;;;;5007302;28;20575;-71
2022/04/13 07:28:28;;;;;;;2.67;2.50;;;9.10;69.80;;;;;;5005390;28;20242;-71
2022/04/13 07:30:54;;;;;;;4.03;3.73;;;9.10;69.60;;;;;;5008888;28;20276;-71
2022/04/13 07:33:20;;;;;;;3.53;3.27;;;9.20;69.10;;;;;;5007554;28;20646;-72
2022/04/13 07:35:45;;;;;;;3.13;2.83;;;9.30;68.70;;;;;;5009774;28;20232;-72
2022/04/13 07:38:11;;;;;;;6.33;3.37;;;9.30;68.40;;;;;;5007512;28;20180;-74
2022/04/13 07:40:37;;;;;;;4.10;3.70;;;9.40;67.80;;;;;;5006401;28;20555;-71
2022/04/13 07:43:02;;;;;;;11.13;2.90;;;9.50;68.30;;;;;;5011911;28;20173;-72
2022/04/13 07:45:28;;;;;;;3.33;3.07;;;9.60;68.00;;;;;;5005597;28;20196;-71
2022/04/13 07:47:54;;;;;;;3.47;3.17;;;9.70;67.60;;;;;;5005801;28;20195;-71
2022/04/13 07:50:19;;;;;;;3.20;3.00;;;9.70;66.90;;;;;;5007937;28;20264;-72
2022/04/13 07:52:45;;;;;;;3.33;2.90;;;9.80;66.60;;;;;;5004778;28;20370;-72
2022/04/13 07:55:11;;;;;;;3.73;3.20;;;9.80;66.30;;;;;;5010830;28;20212;-72
2022/04/13 07:57:38;;;;;;;4.57;3.67;;;9.90;66.10;;;;;;5010791;28;20229;-72
2022/04/13 08:00:05;;;;;;;3.63;3.33;;;9.90;65.50;;;;;;5008595;28;20194;-72
2022/04/13 08:02:34;;;;;;;3.83;3.43;;;10.00;65.80;;;;;;5007775;28;20240;-72
2022/04/13 08:05:00;;;;;;;4.30;3.70;;;10.10;65.70;;;;;;5003518;28;20205;-72
2022/04/13 08:07:26;;;;;;;4.07;3.23;;;10.20;65.60;;;;;;5004920;28;20213;-72
2022/04/13 08:09:52;;;;;;;5.33;3.30;;;10.30;66.10;;;;;;5005902;28;20226;-73
2022/04/13 08:12:17;;;;;;;4.17;3.00;;;10.40;65.80;;;;;;5003784;28;20220;-72
2022/04/13 08:14:47;;;;;;;3.33;3.03;;;10.50;65.30;;;;;;5009785;28;20299;-73
2022/04/13 08:17:13;;;;;;;2.73;2.53;;;10.60;65.40;;;;;;5008284;28;20188;-73
2022/04/13 08:19:39;;;;;;;5.63;3.57;;;10.80;65.10;;;;;;5009752;28;21934;-72
2022/04/13 08:22:05;;;;;;;6.77;3.30;;;10.90;64.80;;;;;;5004286;28;20212;-73
2022/04/13 08:24:31;;;;;;;3.43;3.13;;;11.00;65.20;;;;;;5001788;28;20185;-73
2022/04/13 08:26:59;;;;;;;3.33;3.10;;;11.20;65.10;;;;;;5007335;28;20283;-72
2022/04/13 08:29:26;;;;;;;3.03;2.83;;;11.40;63.70;;;;;;5006499;28;20188;-71
2022/04/13 08:31:51;;;;;;;2.40;2.20;;;11.50;63.50;;;;;;5006813;28;20184;-71
2022/04/13 08:34:17;;;;;;;3.03;2.83;;;11.70;62.70;;;;;;5002140;28;20370;-71
2022/04/13 08:36:43;;;;;;;2.80;2.10;;;11.90;62.00;;;;;;5007986;28;20706;-71
2022/04/13 08:39:13;;;;;;;4.70;2.30;;;12.00;61.60;;;;;;5008132;28;20361;-72
2022/04/13 08:41:55;;;;;;;2.75;2.25;;;12.10;59.50;;;;;;5009362;28;20720;-72
2022/04/13 08:44:34;;;;;;;2.47;2.00;;;12.30;60.10;;;;;;5008956;28;20193;-72
2022/04/13 08:47:05;;;;;;;1.55;1.40;;;12.40;60.10;;;;;;5011774;28;20195;-72
2022/04/13 08:49:33;;;;;;;1.83;1.73;;;12.70;57.50;;;;;;5012302;28;20259;-72
2022/04/13 08:52:03;;;;;;;6.15;2.28;;;12.90;54.50;;;;;;5010764;28;20748;-72
2022/04/13 08:54:32;;;;;;;2.55;1.77;;;13.00;57.00;;;;;;5008156;28;20212;-72
2022/04/13 08:56:58;;;;;;;2.28;2.08;;;13.20;56.10;;;;;;5010969;28;20822;-72
2022/04/13 08:59:32;;;;;;;1.23;1.23;;;13.40;55.10;;;;;;5010168;28;20239;-73
2022/04/13 09:02:39;;;;;;;1.40;1.38;;;13.70;54.40;;;;;;5008772;28;20184;-73
2022/04/13 09:05:12;;;;;;;1.50;1.50;;;14.10;53.20;;;;;;5012341;28;20660;-73
2022/04/13 09:07:39;;;;;;;1.35;1.35;;;14.80;53.10;;;;;;5008108;28;20211;-73
2022/04/13 09:10:10;;;;;;;1.88;1.77;;;15.40;52.50;;;;;;5012267;28;20390;-71
2022/04/13 09:12:39;;;;;;;1.52;1.52;;;15.80;52.20;;;;;;5010022;28;20604;-73
2022/04/13 09:15:06;;;;;;;1.52;1.38;;;16.50;51.10;;;;;;5009293;28;20220;-72
2022/04/13 09:17:32;;;;;;;2.72;2.63;;;17.20;49.60;;;;;;5010191;28;20177;-72
2022/04/13 09:19:59;;;;;;;2.40;2.30;;;18.10;45.90;;;;;;5008499;28;20215;-72
2022/04/13 09:22:26;;;;;;;2.22;2.10;;;18.90;47.80;;;;;;5009574;28;20188;-73
2022/04/13 09:24:52;;;;;;;2.50;2.33;;;19.60;47.20;;;;;;5007397;28;20623;-72
2022/04/13 09:27:20;;;;;;;2.78;1.85;;;20.20;46.90;;;;;;5008679;28;20186;-72
2022/04/13 09:29:47;;;;;;;1.98;1.88;;;21.00;45.60;;;;;;5007977;28;20635;-73
2022/04/13 09:32:14;;;;;;;2.03;1.92;;;21.70;44.60;;;;;;5008492;28;20216;-73
2022/04/13 09:34:40;;;;;;;2.05;1.98;;;22.10;43.50;;;;;;5008439;28;20193;-73
2022/04/13 09:37:07;;;;;;;2.08;1.98;;;22.60;44.00;;;;;;5010360;28;20228;-73
2022/04/13 09:39:33;;;;;;;4.30;1.35;;;23.20;43.00;;;;;;5004370;28;20192;-73
2022/04/13 09:42:03;;;;;;;1.63;1.63;;;23.80;41.10;;;;;;5008941;28;20223;-73
2022/04/13 09:44:30;;;;;;;2.00;1.55;;;24.20;43.00;;;;;;5006592;28;20192;-73
2022/04/13 09:47:05;;;;;;;1.00;1.00;;;24.80;42.80;;;;;;5007511;28;20191;-73
2022/04/13 09:49:31;;;;;;;2.17;2.03;;;25.20;40.30;;;;;;5008189;28;20294;-73
2022/04/13 09:51:56;;;;;;;5.50;2.10;;;25.60;41.10;;;;;;5015710;28;20741;-72
2022/04/13 09:54:26;;;;;;;1.67;1.67;;;26.00;42.00;;;;;;5011773;28;20781;-72
2022/04/13 09:56:52;;;;;;;1.65;1.65;;;26.50;41.80;;;;;;5011743;28;20185;-73
2022/04/13 09:59:30;;;;;;;1.83;1.73;;;27.10;41.00;;;;;;5011295;28;20320;-73
2022/04/13 10:01:56;;;;;;;3.00;2.05;;;27.60;40.60;;;;;;5015226;28;20180;-72
2022/04/13 10:04:30;;;;;;;2.00;2.00;;;28.10;40.40;;;;;;5011263;28;20199;-72
2022/04/13 10:07:16;;;;;;;1.75;1.65;;;28.40;41.10;;;;;;5008425;28;20258;-73
2022/04/13 10:09:42;;;;;;;1.50;1.50;;;28.80;40.10;;;;;;5010407;28;20591;-73
2022/04/13 10:12:09;;;;;;;1.83;1.65;;;29.30;39.60;;;;;;5010948;28;20185;-73
2022/04/13 10:14:35;;;;;;;1.70;1.70;;;29.60;38.50;;;;;;5008014;28;20246;-73
2022/04/13 10:17:09;;;;;;;1.55;1.55;;;29.30;36.00;;;;;;5009310;28;20689;-73
2022/04/13 10:19:35;;;;;;;3.30;1.80;;;29.40;39.60;;;;;;5010279;28;20200;-72
2022/04/13 10:22:02;;;;;;;1.63;1.52;;;29.50;39.50;;;;;;5006167;28;20282;-72
2022/04/13 10:24:29;;;;;;;1.48;1.20;;;29.80;39.70;;;;;;5002313;28;20199;-73
2022/04/13 10:27:05;;;;;;;1.50;1.40;;;30.10;39.40;;;;;;5001951;28;20227;-71
2022/04/13 10:29:33;;;;;;;4.05;1.40;;;30.50;35.90;;;;;;5003924;28;20184;-72
2022/04/13 10:32:09;;;;;;;1.38;1.27;;;30.70;36.10;;;;;;5007600;28;20405;-72
2022/04/13 10:34:46;;;;;;;3.65;1.38;;;30.40;35.50;;;;;;5005482;28;20204;-72
2022/04/13 10:37:15;;;;;;;2.65;1.85;;;30.20;35.60;;;;;;5009637;28;20187;-72
2022/04/13 10:39:42;;;;;;;1.63;1.38;;;30.00;38.30;;;;;;5006749;28;20704;-73
2022/04/13 10:42:12;;;;;;;1.05;1.00;;;30.30;36.20;;;;;;5011249;28;20259;-72
2022/04/13 10:44:42;;;;;;;2.15;1.17;;;30.50;37.70;;;;;;5007995;28;20675;-72
2022/04/13 10:47:12;;;;;;;1.58;1.48;;;30.70;35.40;;;;;;5008076;28;20193;-72
2022/04/13 10:49:57;;;;;;;1.15;1.15;;;31.00;37.00;;;;;;5008989;28;20221;-73
2022/04/13 10:52:44;;;;;;;18.92;1.90;;;31.30;36.50;;;;;;5016200;28;20263;-72
2022/04/13 10:55:12;;;;;;;3.72;1.33;;;31.90;35.80;;;;;;5015024;28;20725;-72
2022/04/13 10:57:46;;;;;;;2.55;1.50;;;32.50;34.40;;;;;;5010553;28;20185;-73
2022/04/13 11:00:14;;;;;;;1.38;1.38;;;32.70;36.20;;;;;;5007784;28;20191;-73
2022/04/13 11:02:54;;;;;;;1.58;1.30;;;32.90;36.20;;;;;;5009247;28;20184;-72
2022/04/13 11:05:22;;;;;;;2.00;1.70;;;33.10;36.30;;;;;;5007532;28;20201;-72
2022/04/13 11:07:54;;;;;;;1.50;1.40;;;33.30;35.70;;;;;;5012133;28;20181;-73
2022/04/13 11:10:21;;;;;;;3.00;0.98;;;33.40;35.80;;;;;;5012087;28;21625;-73
2022/04/13 11:12:47;;;;;;;1.50;1.50;;;33.40;35.60;;;;;;5009663;28;20194;-73
2022/04/13 11:15:13;;;;;;;1.17;1.17;;;33.30;36.50;;;;;;5008610;28;20208;-73
2022/04/13 11:17:43;;;;;;;1.40;1.40;;;33.40;36.50;;;;;;5012208;28;20483;-72
2022/04/13 11:20:22;;;;;;;1.00;1.00;;;33.50;34.30;;;;;;5012620;28;20185;-74
2022/04/13 11:23:14;;;;;;;1.27;1.27;;;33.30;32.20;;;;;;5009770;28;20732;-73
2022/04/13 11:25:47;;;;;;;2.63;1.20;;;32.90;34.50;;;;;;5010717;28;20913;-73
2022/04/13 11:28:28;;;;;;;2.17;1.50;;;32.50;35.40;;;;;;5006979;28;20300;-73
2022/04/13 11:31:03;;;;;;;1.20;1.10;;;32.40;33.90;;;;;;5009434;28;20243;-74
2022/04/13 11:33:51;;;;;;;1.70;1.15;;;32.30;36.40;;;;;;5011134;28;20222;-74
2022/04/13 11:36:19;;;;;;;2.20;1.60;;;32.50;34.90;;;;;;5010380;28;20694;-73
2022/04/13 11:38:49;;;;;;;3.67;1.48;;;32.50;34.10;;;;;;5010228;28;20183;-73
2022/04/13 11:41:15;;;;;;;1.77;1.77;;;32.30;32.90;;;;;;5011876;28;20252;-73
2022/04/13 11:43:41;;;;;;;1.48;1.48;;;31.60;32.80;;;;;;5011921;28;20188;-74
2022/04/13 11:46:11;;;;;;;1.20;1.20;;;31.00;35.10;;;;;;5007563;28;20655;-74
2022/04/13 11:48:37;;;;;;;1.52;1.42;;;30.40;34.80;;;;;;5010315;28;20176;-73
2022/04/13 11:51:30;;;;;;;2.67;1.63;;;30.00;33.30;;;;;;5010230;28;20253;-73
2022/04/13 11:54:09;;;;;;;1.88;1.65;;;29.50;33.30;;;;;;5005617;28;20278;-73
2022/04/13 11:56:37;;;;;;;4.13;1.70;;;29.30;34.90;;;;;;5005433;28;20187;-73
2022/04/13 11:59:04;;;;;;;1.27;1.20;;;29.10;33.50;;;;;;5009702;28;20265;-72
2022/04/13 12:01:33;;;;;;;1.50;1.40;;;29.00;36.50;;;;;;5007632;28;20181;-73
2022/04/13 12:03:59;;;;;;;3.90;1.33;;;29.10;34.00;;;;;;5010650;28;20730;-73
2022/04/13 12:06:26;;;;;;;2.88;1.88;;;29.10;34.60;;;;;;5007233;28;20218;-73
2022/04/13 12:08:57;;;;;;;1.67;1.15;;;29.00;35.40;;;;;;5004549;28;20448;-73
2022/04/13 12:11:44;;;;;;;1.13;1.13;;;29.10;34.90;;;;;;5009168;28;20181;-74
2022/04/13 12:14:11;;;;;;;1.10;1.10;;;29.20;33.30;;;;;;5009410;28;20180;-73
2022/04/13 12:16:38;;;;;;;1.05;0.98;;;28.90;33.70;;;;;;5014036;28;20217;-73
2022/04/13 12:19:09;;;;;;;1.10;1.00;;;28.80;34.20;;;;;;5011800;28;20659;-73
2022/04/13 12:21:39;;;;;;;1.02;1.02;;;28.80;33.70;;;;;;5015817;28;20176;-74
2022/04/13 12:24:07;;;;;;;4.20;1.05;;;28.80;33.80;;;;;;5014474;28;20192;-74
2022/04/13 12:26:47;;;;;;;1.58;1.25;;;28.70;34.70;;;;;;5018699;28;20304;-73
2022/04/13 12:29:14;;;;;;;0.95;0.95;;;28.60;34.70;;;;;;5012246;28;20212;-74
2022/04/13 12:31:51;;;;;;;1.65;0.82;;;28.80;33.70;;;;;;5011082;28;20637;-72
2022/04/13 12:34:18;;;;;;;0.80;0.80;;;28.80;35.30;;;;;;5011226;28;20890;-72
2022/04/13 12:37:01;;;;;;;1.65;0.75;;;29.30;35.00;;;;;;5013997;28;20184;-72
2022/04/13 12:39:32;;;;;;;0.68;0.68;;;29.90;34.50;;;;;;5013271;28;20219;-72
2022/04/13 12:41:58;;;;;;;4.10;0.73;;;30.40;34.60;;;;;;5014060;28;20192;-72
2022/04/13 12:44:24;;;;;;;0.75;0.75;;;31.00;34.10;;;;;;5014965;28;20213;-73
2022/04/13 12:47:02;;;;;;;0.88;0.70;;;31.30;31.80;;;;;;5015885;28;20278;-72
2022/04/13 12:49:30;;;;;;;0.70;0.70;;;31.40;32.70;;;;;;5012352;28;20527;-73
2022/04/13 12:51:57;;;;;;;2.15;1.00;;;31.10;33.30;;;;;;5013107;28;20568;-72
2022/04/13 12:54:24;;;;;;;0.90;0.90;;;30.80;32.30;;;;;;5009294;28;20487;-72
2022/04/13 12:56:51;;;;;;;2.38;0.60;;;30.50;32.80;;;;;;5014610;28;20212;-72